Terminal Aerodrome Forecast
Issued by NWS

Home | Current Version | Previous Version | Text Only | Print | Product List | Glossary On
Versions: 1 2 3 4 5 6 7 8 9 10 11 12 13 14 15 16 17 18 19 20
229
FTUS43 KEAX 230520
TAFSTJ
TAF
KSTJ 230520Z 2306/2406 03007KT P6SM FEW250
     FM231200 06008KT P6SM BKN150
     FM231500 09011KT P6SM VCSH BKN060
     FM240000 10012KT P6SM BKN015
     FM240400 14010KT P6SM SCT015=

USA.gov is the U.S. government's official web portal to all federal, state and local government web resources and services.